sensor_id;sensor_type;location;lat;lon;timestamp;pressure;altitude;pressure_sealevel;temperature;humidity
8717;BME280;4395;48.554;8.820;2023-02-16T00:01:34;96854.38;;;4.22;96.21
8717;BME280;4395;48.554;8.820;2023-02-16T00:03:37;96795.06;;;3.85;97.12
8717;BME280;4395;48.554;8.820;2023-02-16T00:05:40;96854.38;;;4.22;96.74
8717;BME280;4395;48.554;8.820;2023-02-16T00:07:42;96852.59;;;4.07;96.98
8717;BME280;4395;48.554;8.820;2023-02-16T00:09:45;96847.63;;;4.04;97.74
8717;BME280;4395;48.554;8.820;2023-02-16T00:11:49;96845.81;;;4.05;99.02
8717;BME280;4395;48.554;8.820;2023-02-16T00:14:10;96847.63;;;4.04;99.30
8717;BME280;4395;48.554;8.820;2023-02-16T00:16:16;96844.72;;;3.99;97.75
8717;BME280;4395;48.554;8.820;2023-02-16T00:18:20;96838.75;;;3.97;98.54
8717;BME280;4395;48.554;8.820;2023-02-16T00:20:23;96851.63;;;3.94;99.75
8717;BME280;4395;48.554;8.820;2023-02-16T00:22:26;96836.31;;;3.81;100.00
8717;BME280;4395;48.554;8.820;2023-02-16T00:24:29;96840.00;;;3.80;99.20
8717;BME280;4395;48.554;8.820;2023-02-16T00:26:33;96845.31;;;3.80;99.42
8717;BME280;4395;48.554;8.820;2023-02-16T00:28:36;96849.66;;;3.66;100.00
8717;BME280;4395;48.554;8.820;2023-02-16T00:30:39;96848.91;;;3.72;100.00
8717;BME280;4395;48.554;8.820;2023-02-16T00:32:43;96855.06;;;3.73;100.00
8717;BME280;4395;48.554;8.820;2023-02-16T00:34:46;96851.50;;;3.66;100.00
8717;BME280;4395;48.554;8.820;2023-02-16T00:36:48;96851.97;;;3.54;100.00
8717;BME280;4395;48.554;8.820;2023-02-16T00:38:51;96861.31;;;3.50;100.00
8717;BME280;4395;48.554;8.820;2023-02-16T00:40:54;96864.97;;;3.49;100.00
8717;BME280;4395;48.554;8.820;2023-02-16T00:42:57;96863.34;;;3.48;100.00
8717;BME280;4395;48.554;8.820;2023-02-16T00:45:00;96866.53;;;3.44;100.00
8717;BME280;4395;48.554;8.820;2023-02-16T00:47:12;96860.78;;;3.40;100.00
8717;BME280;4395;48.554;8.820;2023-02-16T00:49:21;96859.50;;;3.36;100.00
8717;BME280;4395;48.554;8.820;2023-02-16T00:51:24;96867.91;;;3.10;100.00
8717;BME280;4395;48.554;8.820;2023-02-16T00:53:27;96861.94;;;2.94;100.00
8717;BME280;4395;48.554;8.820;2023-02-16T00:55:32;96858.53;;;2.85;100.00
8717;BME280;4395;48.554;8.820;2023-02-16T00:57:37;96865.50;;;2.86;100.00
8717;BME280;4395;48.554;8.820;2023-02-16T00:59:41;96861.38;;;2.83;100.00
8717;BME280;4395;48.554;8.820;2023-02-16T01:01:44;96851.41;;;2.85;100.00
8717;BME280;4395;48.554;8.820;2023-02-16T01:03:48;96847.00;;;2.93;100.00
8717;BME280;4395;48.554;8.820;2023-02-16T01:05:52;96844.09;;;2.87;100.00
8717;BME280;4395;48.554;8.820;2023-02-16T01:08:16;96852.22;;;2.86;100.00
8717;BME280;4395;48.554;8.820;2023-02-16T01:10:39;96858.00;;;2.89;100.00
8717;BME280;4395;48.554;8.820;2023-02-16T01:13:00;96857.06;;;2.82;100.00
8717;BME280;4395;48.554;8.820;2023-02-16T01:15:05;96837.63;;;2.67;100.00
8717;BME280;4395;48.554;8.820;2023-02-16T01:17:11;96862.75;;;2.79;100.00
8717;BME280;4395;48.554;8.820;2023-02-16T01:19:14;96868.06;;;2.79;100.00
8717;BME280;4395;48.554;8.820;2023-02-16T01:21:18;96835.69;;;2.61;100.00
8717;BME280;4395;48.554;8.820;2023-02-16T01:23:22;96861.09;;;2.78;100.00
8717;BME280;4395;48.554;8.820;2023-02-16T01:25:25;96858.72;;;2.83;100.00
8717;BME280;4395;48.554;8.820;2023-02-16T01:27:28;96855.06;;;2.84;100.00
8717;BME280;4395;48.554;8.820;2023-02-16T01:29:31;96864.69;;;2.85;100.00
8717;BME280;4395;48.554;8.820;2023-02-16T01:31:33;96829.84;;;2.66;100.00
8717;BME280;4395;48.554;8.820;2023-02-16T01:33:36;96852.31;;;2.78;100.00
8717;BME280;4395;48.554;8.820;2023-02-16T01:35:40;96783.06;;;2.27;100.00
8717;BME280;4395;48.554;8.820;2023-02-16T01:37:45;96818.47;;;2.57;100.00
8717;BME280;4395;48.554;8.820;2023-02-16T01:39:51;96849.84;;;2.76;100.00
8717;BME280;4395;48.554;8.820;2023-02-16T01:42:07;96818.91;;;2.46;100.00
8717;BME280;4395;48.554;8.820;2023-02-16T01:44:14;96846.88;;;2.71;100.00
8717;BME280;4395;48.554;8.820;2023-02-16T01:46:21;96829.41;;;2.77;100.00
8717;BME280;4395;48.554;8.820;2023-02-16T01:48:27;96843.88;;;2.51;100.00
8717;BME280;4395;48.554;8.820;2023-02-16T01:50:41;96845.50;;;2.61;100.00
8717;BME280;4395;48.554;8.820;2023-02-16T01:52:53;96835.00;;;2.67;100.00
8717;BME280;4395;48.554;8.820;2023-02-16T01:55:03;96825.72;;;2.63;100.00
8717;BME280;4395;48.554;8.820;2023-02-16T01:57:20;96839.41;;;2.52;100.00
8717;BME280;4395;48.554;8.820;2023-02-16T01:59:35;96820.53;;;2.47;100.00
8717;BME280;4395;48.554;8.820;2023-02-16T02:01:43;96747.97;;;2.02;100.00
8717;BME280;4395;48.554;8.820;2023-02-16T02:03:48;96836.72;;;2.60;100.00
8717;BME280;4395;48.554;8.820;2023-02-16T02:06:10;96831.72;;;2.57;100.00
8717;BME280;4395;48.554;8.820;2023-02-16T02:08:20;96829.91;;;2.57;100.00
8717;BME280;4395;48.554;8.820;2023-02-16T02:10:30;96759.22;;;2.04;100.00
8717;BME280;4395;48.554;8.820;2023-02-16T02:12:45;96846.06;;;2.48;100.00
8717;BME280;4395;48.554;8.820;2023-02-16T02:14:50;96825.88;;;2.24;100.00
8717;BME280;4395;48.554;8.820;2023-02-16T02:16:55;96835.16;;;2.43;100.00
8717;BME280;4395;48.554;8.820;2023-02-16T02:18:59;96826.22;;;2.44;100.00
8717;BME280;4395;48.554;8.820;2023-02-16T02:21:14;96830.94;;;2.34;100.00
8717;BME280;4395;48.554;8.820;2023-02-16T02:23:49;96777.09;;;2.10;100.00
8717;BME280;4395;48.554;8.820;2023-02-16T02:28:41;96824.09;;;2.16;100.00
8717;BME280;4395;48.554;8.820;2023-02-16T02:30:51;96816.63;;;2.20;100.00
8717;BME280;4395;48.554;8.820;2023-02-16T02:33:13;96791.41;;;2.01;100.00
8717;BME280;4395;48.554;8.820;2023-02-16T02:35:28;96812.78;;;2.22;100.00
8717;BME280;4395;48.554;8.820;2023-02-16T02:37:41;96807.13;;;2.25;100.00
8717;BME280;4395;48.554;8.820;2023-02-16T02:39:51;96818.03;;;2.31;100.00
8717;BME280;4395;48.554;8.820;2023-02-16T02:42:02;96806.41;;;2.32;100.00
8717;BME280;4395;48.554;8.820;2023-02-16T02:44:17;96796.88;;;2.22;100.00
8717;BME280;4395;48.554;8.820;2023-02-16T02:46:26;96798.44;;;2.32;100.00
8717;BME280;4395;48.554;8.820;2023-02-16T02:48:29;96811.91;;;2.30;100.00
8717;BME280;4395;48.554;8.820;2023-02-16T02:50:43;96813.25;;;2.26;100.00
8717;BME280;4395;48.554;8.820;2023-02-16T02:53:12;96814.16;;;2.18;100.00
8717;BME280;4395;48.554;8.820;2023-02-16T02:55:16;96816.16;;;2.16;100.00
8717;BME280;4395;48.554;8.820;2023-02-16T02:57:50;96818.81;;;2.16;100.00
8717;BME280;4395;48.554;8.820;2023-02-16T03:00:15;96804.00;;;2.22;100.00
8717;BME280;4395;48.554;8.820;2023-02-16T03:02:39;96805.19;;;2.19;100.00
8717;BME280;4395;48.554;8.820;2023-02-16T03:04:45;96803.59;;;2.10;100.00
8717;BME280;4395;48.554;8.820;2023-02-16T03:06:50;96814.91;;;2.04;100.00
8717;BME280;4395;48.554;8.820;2023-02-16T03:08:59;96820.56;;;2.01;100.00
8717;BME280;4395;48.554;8.820;2023-02-16T03:11:07;96798.66;;;2.07;100.00
8717;BME280;4395;48.554;8.820;2023-02-16T03:13:31;96797.34;;;2.03;100.00
8717;BME280;4395;48.554;8.820;2023-02-16T03:15:38;96819.63;;;2.17;100.00
8717;BME280;4395;48.554;8.820;2023-02-16T03:17:42;96800.88;;;2.18;100.00
8717;BME280;4395;48.554;8.820;2023-02-16T03:20:05;96797.88;;;2.21;100.00
8717;BME280;4395;48.554;8.820;2023-02-16T03:22:27;96803.47;;;2.26;100.00
8717;BME280;4395;48.554;8.820;2023-02-16T03:24:48;96813.38;;;2.33;100.00
8717;BME280;4395;48.554;8.820;2023-02-16T03:27:09;96811.25;;;2.28;100.00
8717;BME280;4395;48.554;8.820;2023-02-16T03:29:31;96808.97;;;2.25;100.00
8717;BME280;4395;48.554;8.820;2023-02-16T03:31:37;96772.13;;;2.07;100.00
8717;BME280;4395;48.554;8.820;2023-02-16T03:33:41;96798.34;;;2.25;100.00
8717;BME280;4395;48.554;8.820;2023-02-16T03:35:44;96804.47;;;2.25;100.00
8717;BME280;4395;48.554;8.820;2023-02-16T03:37:48;96779.31;;;2.21;100.00
8717;BME280;4395;48.554;8.820;2023-02-16T03:39:50;96784.72;;;2.28;100.00
8717;BME280;4395;48.554;8.820;2023-02-16T03:42:11;96806.63;;;2.45;100.00
8717;BME280;4395;48.554;8.820;2023-02-16T03:44:14;96728.41;;;2.03;100.00
8717;BME280;4395;48.554;8.820;2023-02-16T03:46:17;96808.75;;;2.49;100.00
8717;BME280;4395;48.554;8.820;2023-02-16T03:48:21;96812.03;;;2.51;100.00
8717;BME280;4395;48.554;8.820;2023-02-16T03:50:24;96815.81;;;2.57;100.00
8717;BME280;4395;48.554;8.820;2023-02-16T03:52:27;96815.34;;;2.53;100.00
8717;BME280;4395;48.554;8.820;2023-02-16T03:54:30;96816.81;;;2.56;100.00
8717;BME280;4395;48.554;8.820;2023-02-16T03:56:33;96784.41;;;2.46;100.00
8717;BME280;4395;48.554;8.820;2023-02-16T03:58:36;96716.88;;;1.96;100.00
8717;BME280;4395;48.554;8.820;2023-02-16T04:00:39;96825.56;;;2.65;100.00
8717;BME280;4395;48.554;8.820;2023-02-16T04:02:42;96827.19;;;2.66;100.00
8717;BME280;4395;48.554;8.820;2023-02-16T04:04:46;96790.78;;;2.37;100.00
8717;BME280;4395;48.554;8.820;2023-02-16T04:06:49;96824.41;;;2.59;100.00
8717;BME280;4395;48.554;8.820;2023-02-16T04:08:52;96802.88;;;2.39;100.00
8717;BME280;4395;48.554;8.820;2023-02-16T04:10:55;96819.25;;;2.43;100.00
8717;BME280;4395;48.554;8.820;2023-02-16T04:12:58;96826.84;;;2.46;100.00
8717;BME280;4395;48.554;8.820;2023-02-16T04:15:00;96825.03;;;2.46;100.00
8717;BME280;4395;48.554;8.820;2023-02-16T04:17:02;96825.19;;;2.45;100.00
8717;BME280;4395;48.554;8.820;2023-02-16T04:19:05;96823.63;;;2.36;100.00
8717;BME280;4395;48.554;8.820;2023-02-16T04:21:13;96737.09;;;1.74;100.00
8717;BME280;4395;48.554;8.820;2023-02-16T04:23:15;96800.78;;;2.12;100.00
8717;BME280;4395;48.554;8.820;2023-02-16T04:25:18;96741.44;;;1.67;100.00
8717;BME280;4395;48.554;8.820;2023-02-16T04:27:21;96824.81;;;2.33;100.00
8717;BME280;4395;48.554;8.820;2023-02-16T04:29:24;96823.97;;;2.33;100.00
8717;BME280;4395;48.554;8.820;2023-02-16T04:31:27;96827.38;;;2.41;100.00
8717;BME280;4395;48.554;8.820;2023-02-16T04:33:30;96834.00;;;2.45;100.00
8717;BME280;4395;48.554;8.820;2023-02-16T04:35:33;96745.41;;;1.94;100.00
8717;BME280;4395;48.554;8.820;2023-02-16T04:37:37;96829.88;;;2.43;100.00
8717;BME280;4395;48.554;8.820;2023-02-16T04:39:40;96836.63;;;2.45;100.00
8717;BME280;4395;48.554;8.820;2023-02-16T04:41:42;96818.44;;;2.42;100.00
8717;BME280;4395;48.554;8.820;2023-02-16T04:43:45;96834.69;;;2.39;100.00
8717;BME280;4395;48.554;8.820;2023-02-16T04:45:48;96726.59;;;1.81;100.00
8717;BME280;4395;48.554;8.820;2023-02-16T04:47:51;96834.69;;;2.39;100.00
8717;BME280;4395;48.554;8.820;2023-02-16T04:49:54;96835.88;;;2.37;100.00
8717;BME280;4395;48.554;8.820;2023-02-16T04:51:57;96825.16;;;2.30;100.00
8717;BME280;4395;48.554;8.820;2023-02-16T04:54:02;96832.94;;;2.32;100.00
8717;BME280;4395;48.554;8.820;2023-02-16T04:56:08;96784.81;;;1.97;100.00
8717;BME280;4395;48.554;8.820;2023-02-16T04:58:11;96828.34;;;2.25;100.00
8717;BME280;4395;48.554;8.820;2023-02-16T05:00:14;96823.56;;;2.21;100.00
8717;BME280;4395;48.554;8.820;2023-02-16T05:02:17;96839.97;;;2.24;100.00
8717;BME280;4395;48.554;8.820;2023-02-16T05:04:19;96836.00;;;2.20;100.00
8717;BME280;4395;48.554;8.820;2023-02-16T05:06:22;96788.28;;;1.75;100.00
8717;BME280;4395;48.554;8.820;2023-02-16T05:08:25;96815.56;;;1.83;100.00
8717;BME280;4395;48.554;8.820;2023-02-16T05:10:29;96793.63;;;1.67;100.00
8717;BME280;4395;48.554;8.820;2023-02-16T05:12:32;96848.66;;;1.87;100.00
8717;BME280;4395;48.554;8.820;2023-02-16T05:14:52;96843.38;;;1.87;100.00
8717;BME280;4395;48.554;8.820;2023-02-16T05:16:54;96839.88;;;1.87;100.00
8717;BME280;4395;48.554;8.820;2023-02-16T05:18:57;96787.72;;;1.56;100.00
8717;BME280;4395;48.554;8.820;2023-02-16T05:20:59;96830.94;;;1.88;100.00
8717;BME280;4395;48.554;8.820;2023-02-16T05:23:20;96838.72;;;1.89;100.00
8717;BME280;4395;48.554;8.820;2023-02-16T05:25:23;96849.50;;;1.88;100.00
8717;BME280;4395;48.554;8.820;2023-02-16T05:27:29;96824.66;;;1.58;100.00
8717;BME280;4395;48.554;8.820;2023-02-16T05:29:32;96849.75;;;1.70;100.00
8717;BME280;4395;48.554;8.820;2023-02-16T05:31:34;96858.88;;;1.68;100.00
8717;BME280;4395;48.554;8.820;2023-02-16T05:33:37;96849.22;;;1.75;100.00
8717;BME280;4395;48.554;8.820;2023-02-16T05:35:40;96850.53;;;1.79;100.00
8717;BME280;4395;48.554;8.820;2023-02-16T05:37:43;96850.41;;;1.72;100.00
8717;BME280;4395;48.554;8.820;2023-02-16T05:39:46;96849.22;;;1.75;100.00
8717;BME280;4395;48.554;8.820;2023-02-16T05:41:48;96619.38;;;0.38;100.00
8717;BME280;4395;48.554;8.820;2023-02-16T05:43:54;96845.22;;;1.79;100.00
8717;BME280;4395;48.554;8.820;2023-02-16T05:45:57;96808.84;;;1.42;100.00
8717;BME280;4395;48.554;8.820;2023-02-16T05:48:00;96853.31;;;1.54;100.00
8717;BME280;4395;48.554;8.820;2023-02-16T05:50:04;96827.91;;;1.37;100.00
8717;BME280;4395;48.554;8.820;2023-02-16T05:52:07;96852.66;;;1.52;100.00
8717;BME280;4395;48.554;8.820;2023-02-16T05:54:10;96846.72;;;1.50;100.00
8717;BME280;4395;48.554;8.820;2023-02-16T05:56:18;96857.22;;;1.36;100.00
8717;BME280;4395;48.554;8.820;2023-02-16T05:58:21;96859.31;;;1.48;100.00
8717;BME280;4395;48.554;8.820;2023-02-16T06:00:25;96796.91;;;1.07;100.00
8717;BME280;4395;48.554;8.820;2023-02-16T06:02:28;96768.56;;;0.76;100.00
8717;BME280;4395;48.554;8.820;2023-02-16T06:04:31;96859.72;;;1.29;100.00
8717;BME280;4395;48.554;8.820;2023-02-16T06:06:34;96858.06;;;1.28;100.00
8717;BME280;4395;48.554;8.820;2023-02-16T06:08:37;96852.16;;;1.10;100.00
8717;BME280;4395;48.554;8.820;2023-02-16T06:10:40;96852.84;;;1.04;100.00
8717;BME280;4395;48.554;8.820;2023-02-16T06:12:43;96855.16;;;0.99;100.00
8717;BME280;4395;48.554;8.820;2023-02-16T06:14:46;96858.13;;;1.04;100.00
8717;BME280;4395;48.554;8.820;2023-02-16T06:16:50;96864.75;;;1.08;100.00
8717;BME280;4395;48.554;8.820;2023-02-16T06:18:53;96849.72;;;1.00;100.00
8717;BME280;4395;48.554;8.820;2023-02-16T06:20:56;96878.63;;;1.10;100.00
8717;BME280;4395;48.554;8.820;2023-02-16T06:22:59;96885.44;;;1.04;100.00
8717;BME280;4395;48.554;8.820;2023-02-16T06:25:02;96862.75;;;1.10;100.00
8717;BME280;4395;48.554;8.820;2023-02-16T06:27:04;96887.56;;;1.17;100.00
8717;BME280;4395;48.554;8.820;2023-02-16T06:29:08;96880.59;;;1.24;100.00
8717;BME280;4395;48.554;8.820;2023-02-16T06:31:11;96879.91;;;1.30;100.00
8717;BME280;4395;48.554;8.820;2023-02-16T06:33:15;96878.78;;;1.16;100.00
8717;BME280;4395;48.554;8.820;2023-02-16T06:35:18;96852.66;;;1.13;100.00
8717;BME280;4395;48.554;8.820;2023-02-16T06:37:21;96869.78;;;1.34;100.00
8717;BME280;4395;48.554;8.820;2023-02-16T06:39:25;96874.59;;;1.30;100.00
8717;BME280;4395;48.554;8.820;2023-02-16T06:41:28;96876.47;;;1.21;100.00
8717;BME280;4395;48.554;8.820;2023-02-16T06:43:36;96847.03;;;1.08;100.00
8717;BME280;4395;48.554;8.820;2023-02-16T06:45:39;96873.97;;;1.20;100.00
8717;BME280;4395;48.554;8.820;2023-02-16T06:47:41;96874.28;;;1.25;100.00
8717;BME280;4395;48.554;8.820;2023-02-16T06:49:46;96863.00;;;1.31;100.00
8717;BME280;4395;48.554;8.820;2023-02-16T06:51:49;96878.19;;;1.45;100.00
8717;BME280;4395;48.554;8.820;2023-02-16T06:53:51;96881.66;;;1.46;100.00
8717;BME280;4395;48.554;8.820;2023-02-16T06:55:54;96868.41;;;1.46;100.00
8717;BME280;4395;48.554;8.820;2023-02-16T06:57:57;96886.41;;;1.58;100.00
8717;BME280;4395;48.554;8.820;2023-02-16T07:00:00;96883.72;;;1.67;100.00
8717;BME280;4395;48.554;8.820;2023-02-16T07:02:03;96887.34;;;1.74;100.00
8717;BME280;4395;48.554;8.820;2023-02-16T07:04:07;96890.28;;;1.79;100.00
8717;BME280;4395;48.554;8.820;2023-02-16T07:06:12;96879.34;;;1.82;100.00
8717;BME280;4395;48.554;8.820;2023-02-16T07:08:15;96883.78;;;1.89;100.00
8717;BME280;4395;48.554;8.820;2023-02-16T07:10:18;96884.22;;;2.01;100.00
8717;BME280;4395;48.554;8.820;2023-02-16T07:12:21;96864.69;;;1.94;100.00
8717;BME280;4395;48.554;8.820;2023-02-16T07:14:24;96876.16;;;2.17;100.00
8717;BME280;4395;48.554;8.820;2023-02-16T07:16:26;96863.00;;;2.01;100.00
8717;BME280;4395;48.554;8.820;2023-02-16T07:18:30;96876.44;;;2.22;100.00
8717;BME280;4395;48.554;8.820;2023-02-16T07:20:33;96891.19;;;2.48;100.00
8717;BME280;4395;48.554;8.820;2023-02-16T07:22:37;96891.13;;;2.56;100.00
8717;BME280;4395;48.554;8.820;2023-02-16T07:24:40;96898.50;;;2.69;100.00
8717;BME280;4395;48.554;8.820;2023-02-16T07:26:42;96874.38;;;2.78;100.00
8717;BME280;4395;48.554;8.820;2023-02-16T07:28:45;96890.22;;;2.86;100.00
8717;BME280;4395;48.554;8.820;2023-02-16T07:30:48;96807.34;;;2.39;100.00
8717;BME280;4395;48.554;8.820;2023-02-16T07:32:51;96893.72;;;3.02;100.00
8717;BME280;4395;48.554;8.820;2023-02-16T07:34:54;96895.31;;;3.11;100.00
8717;BME280;4395;48.554;8.820;2023-02-16T07:36:57;96895.59;;;3.16;100.00
8717;BME280;4395;48.554;8.820;2023-02-16T07:39:01;96894.50;;;3.25;100.00
8717;BME280;4395;48.554;8.820;2023-02-16T07:41:04;96827.97;;;2.89;100.00
8717;BME280;4395;48.554;8.820;2023-02-16T07:43:10;96898.97;;;3.39;100.00
8717;BME280;4395;48.554;8.820;2023-02-16T07:45:13;96897.25;;;3.46;100.00
8717;BME280;4395;48.554;8.820;2023-02-16T07:47:15;96888.72;;;3.51;100.00
8717;BME280;4395;48.554;8.820;2023-02-16T07:49:18;96866.72;;;3.42;100.00
8717;BME280;4395;48.554;8.820;2023-02-16T07:51:23;96897.88;;;3.63;100.00
8717;BME280;4395;48.554;8.820;2023-02-16T07:53:26;96907.78;;;3.69;100.00
8717;BME280;4395;48.554;8.820;2023-02-16T07:55:30;96907.41;;;3.72;100.00
8717;BME280;4395;48.554;8.820;2023-02-16T07:57:33;96912.44;;;3.82;100.00
8717;BME280;4395;48.554;8.820;2023-02-16T07:59:36;96899.63;;;3.71;100.00
8717;BME280;4395;48.554;8.820;2023-02-16T08:01:38;96921.41;;;3.96;100.00
8717;BME280;4395;48.554;8.820;2023-02-16T08:03:42;96920.84;;;4.00;100.00
8717;BME280;4395;48.554;8.820;2023-02-16T08:05:45;96910.28;;;4.07;100.00
8717;BME280;4395;48.554;8.820;2023-02-16T08:07:47;96909.72;;;4.11;100.00
8717;BME280;4395;48.554;8.820;2023-02-16T08:09:50;96767.06;;;3.17;100.00
8717;BME280;4395;48.554;8.820;2023-02-16T08:11:54;96922.16;;;4.26;100.00
8717;BME280;4395;48.554;8.820;2023-02-16T08:13:58;96920.78;;;4.30;100.00
8717;BME280;4395;48.554;8.820;2023-02-16T08:16:00;96891.09;;;4.11;100.00
8717;BME280;4395;48.554;8.820;2023-02-16T08:18:04;96918.88;;;4.45;100.00
8717;BME280;4395;48.554;8.820;2023-02-16T08:20:07;96920.59;;;4.52;100.00
8717;BME280;4395;48.554;8.820;2023-02-16T08:22:10;96920.94;;;4.64;100.00
8717;BME280;4395;48.554;8.820;2023-02-16T08:24:13;96787.16;;;3.92;100.00
8717;BME280;4395;48.554;8.820;2023-02-16T08:26:17;96937.66;;;4.79;100.00
8717;BME280;4395;48.554;8.820;2023-02-16T08:28:21;96918.81;;;4.81;100.00
8717;BME280;4395;48.554;8.820;2023-02-16T08:30:29;96921.34;;;4.89;100.00
8717;BME280;4395;48.554;8.820;2023-02-16T08:32:32;96926.34;;;4.99;100.00
8717;BME280;4395;48.554;8.820;2023-02-16T08:34:35;96924.38;;;5.07;100.00
8717;BME280;4395;48.554;8.820;2023-02-16T08:36:40;96917.84;;;5.10;100.00
8717;BME280;4395;48.554;8.820;2023-02-16T08:38:45;96924.03;;;5.17;100.00
8717;BME280;4395;48.554;8.820;2023-02-16T08:40:50;96912.13;;;5.13;100.00
8717;BME280;4395;48.554;8.820;2023-02-16T08:42:53;96925.81;;;5.31;100.00
8717;BME280;4395;48.554;8.820;2023-02-16T08:44:57;96897.13;;;5.33;100.00
8717;BME280;4395;48.554;8.820;2023-02-16T08:47:00;96921.44;;;5.52;100.00
8717;BME280;4395;48.554;8.820;2023-02-16T08:49:04;96923.38;;;5.64;100.00
8717;BME280;4395;48.554;8.820;2023-02-16T08:51:12;96932.81;;;5.67;99.62
8717;BME280;4395;48.554;8.820;2023-02-16T08:53:15;96931.00;;;5.74;98.64
8717;BME280;4395;48.554;8.820;2023-02-16T08:55:18;96931.81;;;5.74;98.00
8717;BME280;4395;48.554;8.820;2023-02-16T08:57:21;96928.16;;;5.75;97.51
8717;BME280;4395;48.554;8.820;2023-02-16T08:59:24;96894.38;;;5.55;97.26
8717;BME280;4395;48.554;8.820;2023-02-16T09:01:30;96927.59;;;5.87;93.31
8717;BME280;4395;48.554;8.820;2023-02-16T09:03:33;96899.22;;;5.79;93.14
8717;BME280;4395;48.554;8.820;2023-02-16T09:05:37;96916.63;;;6.09;92.98
8717;BME280;4395;48.554;8.820;2023-02-16T09:07:40;96924.25;;;6.19;92.17
8717;BME280;4395;48.554;8.820;2023-02-16T09:09:43;96878.66;;;6.07;91.77
8717;BME280;4395;48.554;8.820;2023-02-16T09:11:46;96925.19;;;6.53;89.88
8717;BME280;4395;48.554;8.820;2023-02-16T09:13:49;96901.16;;;6.53;88.47
8717;BME280;4395;48.554;8.820;2023-02-16T09:15:52;96912.91;;;6.71;86.45
8717;BME280;4395;48.554;8.820;2023-02-16T09:17:57;96914.97;;;6.76;86.46
8717;BME280;4395;48.554;8.820;2023-02-16T09:20:00;96923.81;;;6.90;85.71
8717;BME280;4395;48.554;8.820;2023-02-16T09:22:03;96922.78;;;7.04;85.35
8717;BME280;4395;48.554;8.820;2023-02-16T09:24:07;96859.66;;;6.76;85.31
8717;BME280;4395;48.554;8.820;2023-02-16T09:26:12;96924.00;;;7.34;83.70
8717;BME280;4395;48.554;8.820;2023-02-16T09:28:15;96917.63;;;7.42;83.11
8717;BME280;4395;48.554;8.820;2023-02-16T09:30:18;96918.66;;;7.48;82.24
8717;BME280;4395;48.554;8.820;2023-02-16T09:32:21;96911.22;;;7.63;80.46
8717;BME280;4395;48.554;8.820;2023-02-16T09:34:26;96923.75;;;7.75;81.01
8717;BME280;4395;48.554;8.820;2023-02-16T09:36:29;96924.75;;;7.94;81.07
8717;BME280;4395;48.554;8.820;2023-02-16T09:38:32;96927.38;;;8.07;80.46
8717;BME280;4395;48.554;8.820;2023-02-16T09:40:35;96900.78;;;8.13;80.56
8717;BME280;4395;48.554;8.820;2023-02-16T09:42:51;96901.16;;;8.23;78.10
8717;BME280;4395;48.554;8.820;2023-02-16T09:45:02;96905.19;;;8.45;76.64
8717;BME280;4395;48.554;8.820;2023-02-16T09:47:11;96908.03;;;8.57;75.60
8717;BME280;4395;48.554;8.820;2023-02-16T09:49:34;96912.69;;;8.68;74.87
8717;BME280;4395;48.554;8.820;2023-02-16T09:51:39;96907.47;;;8.80;74.32
8717;BME280;4395;48.554;8.820;2023-02-16T09:53:42;96848.69;;;8.53;73.20
8717;BME280;4395;48.554;8.820;2023-02-16T09:55:51;96907.06;;;9.08;72.07
8717;BME280;4395;48.554;8.820;2023-02-16T09:58:04;96866.13;;;8.94;71.77
8717;BME280;4395;48.554;8.820;2023-02-16T10:00:19;96905.09;;;9.21;71.87
8717;BME280;4395;48.554;8.820;2023-02-16T10:02:33;96899.41;;;9.54;71.90
8717;BME280;4395;48.554;8.820;2023-02-16T10:04:44;96861.91;;;9.48;69.09
8717;BME280;4395;48.554;8.820;2023-02-16T10:07:00;96894.59;;;9.99;67.89
8717;BME280;4395;48.554;8.820;2023-02-16T10:09:07;96899.38;;;10.16;65.88
8717;BME280;4395;48.554;8.820;2023-02-16T10:11:14;96896.00;;;10.39;64.30
8717;BME280;4395;48.554;8.820;2023-02-16T10:13:36;96896.81;;;10.39;63.74
8717;BME280;4395;48.554;8.820;2023-02-16T10:15:43;96909.97;;;10.47;63.80
8717;BME280;4395;48.554;8.820;2023-02-16T10:17:48;96842.06;;;10.22;63.01
8717;BME280;4395;48.554;8.820;2023-02-16T10:19:58;96902.88;;;10.83;62.09
8717;BME280;4395;48.554;8.820;2023-02-16T10:22:05;96895.63;;;10.95;61.25
8717;BME280;4395;48.554;8.820;2023-02-16T10:24:11;96900.81;;;11.08;59.97
8717;BME280;4395;48.554;8.820;2023-02-16T10:26:19;96878.84;;;11.11;58.97
8717;BME280;4395;48.554;8.820;2023-02-16T10:28:33;96900.50;;;11.28;58.08
8717;BME280;4395;48.554;8.820;2023-02-16T10:30:42;96893.03;;;11.53;58.08
8717;BME280;4395;48.554;8.820;2023-02-16T10:32:55;96897.94;;;11.68;56.05
8717;BME280;4395;48.554;8.820;2023-02-16T10:35:08;96888.47;;;11.77;55.82
8717;BME280;4395;48.554;8.820;2023-02-16T10:37:32;96880.75;;;11.81;56.31
8717;BME280;4395;48.554;8.820;2023-02-16T10:39:41;96889.81;;;12.15;55.35
8717;BME280;4395;48.554;8.820;2023-02-16T10:41:51;96811.28;;;11.83;54.19
8717;BME280;4395;48.554;8.820;2023-02-16T10:44:02;96884.06;;;12.51;53.41
8717;BME280;4395;48.554;8.820;2023-02-16T10:46:09;96887.63;;;12.69;52.56
8717;BME280;4395;48.554;8.820;2023-02-16T10:48:13;96878.56;;;12.75;52.53
8717;BME280;4395;48.554;8.820;2023-02-16T10:50:21;96891.41;;;13.13;51.75
8717;BME280;4395;48.554;8.820;2023-02-16T10:52:28;96889.16;;;13.22;50.99
8717;BME280;4395;48.554;8.820;2023-02-16T10:54:32;96879.19;;;13.39;50.97
8717;BME280;4395;48.554;8.820;2023-02-16T10:56:44;96881.63;;;13.24;49.77
8717;BME280;4395;48.554;8.820;2023-02-16T10:58:50;96875.91;;;13.20;50.58
8717;BME280;4395;48.554;8.820;2023-02-16T11:00:57;96874.72;;;13.66;50.71
8717;BME280;4395;48.554;8.820;2023-02-16T11:03:01;96880.78;;;13.73;50.38
8717;BME280;4395;48.554;8.820;2023-02-16T11:05:31;96874.97;;;14.03;49.87
8717;BME280;4395;48.554;8.820;2023-02-16T11:07:51;96879.63;;;14.30;48.38
8717;BME280;4395;48.554;8.820;2023-02-16T11:09:56;96874.94;;;14.42;47.75
8717;BME280;4395;48.554;8.820;2023-02-16T11:12:13;96841.22;;;14.50;46.94
8717;BME280;4395;48.554;8.820;2023-02-16T11:14:20;96876.09;;;14.73;46.95
8717;BME280;4395;48.554;8.820;2023-02-16T11:16:23;96879.91;;;14.77;46.75
8717;BME280;4395;48.554;8.820;2023-02-16T11:18:31;96860.19;;;15.08;46.06
8717;BME280;4395;48.554;8.820;2023-02-16T11:20:52;96856.00;;;15.28;44.72
8717;BME280;4395;48.554;8.820;2023-02-16T11:23:11;96820.81;;;15.28;44.02
8717;BME280;4395;48.554;8.820;2023-02-16T11:25:23;96846.50;;;15.57;43.35
8717;BME280;4395;48.554;8.820;2023-02-16T11:27:26;96851.91;;;15.57;42.85
8717;BME280;4395;48.554;8.820;2023-02-16T11:29:30;96850.78;;;15.53;43.02
8717;BME280;4395;48.554;8.820;2023-02-16T11:31:37;96843.97;;;15.83;42.72